Time;durP1;ratioP1;P1;durP2;ratioP2;P2;SDS_P1;SDS_P2;PMS_P1;PMS_P2;Temp;Humidity;BMP_temperature;BMP_pressure;BME280_temperature;BME280_humidity;BME280_pressure;Samples;Min_cycle;Max_cycle;Signal;HPM_P1;HPM_P2
2023/01/24 00:00:09;;;;;;;9.90;7.00;;;;;;;-5.98;99.27;103384.13;4993101;28;20050;-74
2023/01/24 00:02:34;;;;;;;9.18;6.80;;;;;;;-5.95;99.84;103397.13;4992657;28;20523;-74
2023/01/24 00:05:00;;;;;;;11.00;7.47;;;;;;;-5.99;100.00;103371.16;4992817;28;20038;-73
2023/01/24 00:07:25;;;;;;;8.80;6.83;;;;;;;-5.93;100.00;103377.22;4993892;28;20034;-73
2023/01/24 00:09:51;;;;;;;9.73;6.93;;;;;;;-5.95;100.00;103355.59;4977414;28;20045;-73
2023/01/24 00:12:16;;;;;;;11.23;8.10;;;;;;;-5.82;100.00;103363.38;4995025;28;20126;-73
2023/01/24 00:14:42;;;;;;;10.90;7.20;;;;;;;-5.78;100.00;103359.94;4993324;28;20069;-74
2023/01/24 00:17:07;;;;;;;12.00;8.13;;;;;;;-5.81;100.00;103378.09;4992861;28;20026;-73
2023/01/24 00:19:33;;;;;;;9.43;6.37;;;;;;;-5.94;100.00;103357.34;4993085;28;20022;-73
2023/01/24 00:22:00;;;;;;;12.88;7.72;;;;;;;-5.82;100.00;103376.38;4976458;28;20027;-74
2023/01/24 00:24:26;;;;;;;10.13;7.65;;;;;;;-5.80;99.76;103369.44;5007252;28;20030;-74
2023/01/24 00:26:52;;;;;;;10.97;7.23;;;;;;;-5.84;99.73;103349.53;5010414;28;20030;-75
2023/01/24 00:29:17;;;;;;;10.43;7.27;;;;;;;-5.84;99.81;103354.72;5011797;28;20011;-72
2023/01/24 00:31:43;;;;;;;11.87;6.73;;;;;;;-5.79;100.00;103363.41;5013589;28;20038;-74
2023/01/24 00:34:08;;;;;;;10.60;7.27;;;;;;;-5.86;100.00;103338.28;4997604;28;20373;-74
2023/01/24 00:36:34;;;;;;;13.37;8.43;;;;;;;-5.88;100.00;103337.44;4976563;28;20036;-73
2023/01/24 00:38:59;;;;;;;10.90;7.40;;;;;;;-5.85;100.00;103333.09;4996195;28;20117;-73
2023/01/24 00:41:25;;;;;;;11.40;6.60;;;;;;;-5.86;100.00;103330.50;4996436;28;20499;-72
2023/01/24 00:43:50;;;;;;;8.73;7.67;;;;;;;-5.86;100.00;103331.38;4996071;28;20484;-72
2023/01/24 00:46:16;;;;;;;11.70;7.53;;;;;;;-5.76;100.00;103333.16;4996158;28;20033;-74
2023/01/24 00:48:41;;;;;;;12.77;8.53;;;;;;;-5.83;100.00;103308.03;4996071;28;20430;-73
2023/01/24 00:51:07;;;;;;;12.70;8.33;;;;;;;-5.69;100.00;103326.25;4995539;28;20022;-74
2023/01/24 00:53:32;;;;;;;10.37;8.30;;;;;;;-5.66;100.00;103334.03;4978340;28;20117;-74
2023/01/24 00:55:58;;;;;;;10.63;7.53;;;;;;;-5.69;100.00;103331.44;4996001;28;20022;-76
2023/01/24 00:58:24;;;;;;;9.53;7.23;;;;;;;-5.64;100.00;103337.50;4995620;28;20141;-74
2023/01/24 01:00:54;;;;;;;9.82;6.57;;;;;;;-5.58;100.00;103331.44;4978487;28;20065;-73
2023/01/24 01:03:19;;;;;;;10.70;7.82;;;;;;;-5.80;100.00;103310.63;4995647;28;20030;-73
2023/01/24 01:05:46;;;;;;;10.63;7.93;;;;;;;-5.59;100.00;103327.13;4978557;28;20069;-74
2023/01/24 01:08:12;;;;;;;12.37;8.43;;;;;;;-5.79;100.00;103295.91;4997051;28;20058;-74
2023/01/24 01:10:38;;;;;;;11.53;9.43;;;;;;;-5.58;100.00;103323.66;4995884;28;20076;-74
2023/01/24 01:13:04;;;;;;;11.35;8.25;;;;;;;-5.61;100.00;103312.41;4996100;28;20465;-73
2023/01/24 01:15:31;;;;;;;13.52;8.80;;;;;;;-5.58;100.00;103319.34;4996247;28;20417;-74
2023/01/24 01:17:58;;;;;;;11.57;8.50;;;;;;;-5.54;100.00;103328.00;4995958;28;20096;-74
2023/01/24 01:20:24;;;;;;;12.05;9.27;;;;;;;-5.57;100.00;103318.47;4995371;28;20042;-73
2023/01/24 01:22:49;;;;;;;12.90;7.93;;;;;;;-5.59;100.00;103328.00;4996873;28;20165;-74
2023/01/24 01:25:15;;;;;;;11.70;7.40;;;;;;;-5.55;100.00;103327.13;4995119;28;20402;-71
2023/01/24 01:27:41;;;;;;;12.97;8.60;;;;;;;-5.45;100.00;103331.50;4995098;28;20022;-73
2023/01/24 01:30:07;;;;;;;41.60;11.80;;;;;;;-5.42;100.00;103334.09;4977476;28;20038;-72
2023/01/24 01:32:32;;;;;;;12.50;8.23;;;;;;;-5.46;100.00;103306.38;4994947;28;20080;-73
2023/01/24 01:34:58;;;;;;;14.23;9.33;;;;;;;-5.41;100.00;103321.97;4994641;28;20410;-74
2023/01/24 01:37:24;;;;;;;14.07;9.30;;;;;;;-5.37;100.00;103305.53;4994893;28;20030;-71
2023/01/24 01:39:49;;;;;;;15.80;10.67;;;;;;;-5.27;100.00;103302.06;4994932;28;20023;-73
2023/01/24 01:42:15;;;;;;;14.83;10.53;;;;;;;-5.27;100.00;103285.59;4977335;28;20482;-72
2023/01/24 01:44:47;;;;;;;13.93;9.87;;;;;;;-5.31;100.00;103274.34;4994893;28;20023;-75
2023/01/24 01:47:23;;;;;;;18.67;12.45;;;;;;;-5.08;100.00;103290.81;4994778;28;20135;-72
2023/01/24 01:50:20;;;;;;;17.67;12.23;;;;;;;-5.13;99.69;103287.34;4995183;28;20051;-74
2023/01/24 01:52:46;;;;;;;18.58;10.73;;;;;;;-5.52;99.95;103223.25;5006026;28;20038;-72
2023/01/24 01:55:14;;;;;;;14.48;11.25;;;;;;;-5.20;100.00;103276.97;5004200;28;20033;-70
2023/01/24 01:57:41;;;;;;;12.00;7.93;;;;;;;-5.27;100.00;103273.47;5003244;28;20045;-72
2023/01/24 02:00:14;;;;;;;14.38;9.57;;;;;;;-5.28;100.00;103270.88;5003012;28;20577;-73
2023/01/24 02:02:43;;;;;;;17.55;10.73;;;;;;;-5.27;100.00;103251.84;5002498;28;20038;-71
2023/01/24 02:05:11;;;;;;;12.98;8.57;;;;;;;-5.17;100.00;103250.97;4996040;28;20042;-72
2023/01/24 02:07:46;;;;;;;18.27;11.48;;;;;;;-5.24;100.00;103223.25;4995232;28;20469;-72
2023/01/24 02:10:12;;;;;;;19.83;11.57;;;;;;;-5.17;100.00;103250.97;4994890;28;20026;-71
2023/01/24 02:12:47;;;;;;;14.10;9.73;;;;;;;-5.17;100.00;103244.06;4998061;28;20072;-73
2023/01/24 02:18:06;;;;;;;14.63;9.35;;;;;;;-5.08;100.00;103219.78;4997883;28;20085;-73
2023/01/24 02:20:38;;;;;;;16.83;10.95;;;;;;;-4.99;100.00;103217.16;4997258;28;20428;-71
2023/01/24 02:23:36;;;;;;;18.40;11.65;;;;;;;-5.00;100.00;103220.63;5003814;28;20061;-71
2023/01/24 02:26:08;;;;;;;16.38;10.20;;;;;;;-5.01;100.00;103217.16;4968693;28;20026;-72
2023/01/24 02:28:34;;;;;;;17.80;10.93;;;;;;;-5.05;100.00;103202.44;4984975;28;20135;-72
2023/01/24 02:31:01;;;;;;;21.08;10.77;;;;;;;-5.08;100.00;103197.25;4994078;28;20061;-72
2023/01/24 02:33:27;;;;;;;17.15;10.68;;;;;;;-5.00;100.00;103203.28;4997581;28;20033;-72
2023/01/24 02:36:23;;;;;;;17.03;10.67;;;;;;;-4.95;100.00;103198.09;4994705;28;20034;-74
2023/01/24 02:38:59;;;;;;;17.08;9.70;;;;;;;-4.91;100.00;103198.97;4989847;28;20034;-73
2023/01/24 02:41:29;;;;;;;15.85;10.73;;;;;;;-4.94;100.00;103181.63;4996021;28;20126;-73
2023/01/24 02:43:58;;;;;;;15.50;10.55;;;;;;;-4.91;100.00;103181.63;4994147;28;20033;-72
2023/01/24 02:46:24;;;;;;;14.07;9.27;;;;;;;-4.87;100.00;103167.75;4993957;28;20034;-74
2023/01/24 02:48:51;;;;;;;12.37;9.17;;;;;;;-4.81;100.00;103170.31;4994051;28;20060;-73
2023/01/24 02:54:00;;;;;;;11.52;7.93;;;;;;;-4.93;100.00;103152.16;4993965;28;20113;-74
2023/01/24 02:59:10;;;;;;;9.25;7.00;;;;;;;-4.80;100.00;103143.47;4994668;28;20072;-73
2023/01/24 03:01:35;;;;;;;10.73;7.10;;;;;;;-4.80;100.00;103146.06;4998952;28;20038;-72
2023/01/24 03:04:01;;;;;;;10.83;7.27;;;;;;;-4.84;100.00;103128.75;5001770;28;20084;-73
2023/01/24 03:06:27;;;;;;;7.57;6.27;;;;;;;-4.81;100.00;103125.28;4997382;28;20438;-74
2023/01/24 03:08:53;;;;;;;9.65;7.15;;;;;;;-4.85;100.00;103113.16;4999675;28;20038;-73
2023/01/24 03:11:18;;;;;;;9.83;7.43;;;;;;;-4.70;100.00;103121.75;4999986;28;20049;-72
2023/01/24 03:35:53;;;;;;;6.38;5.50;;;;;;;-4.44;100.00;103095.59;4994069;28;20529;-70
2023/01/24 03:41:04;;;;;;;8.80;5.40;;;;;;;-4.45;100.00;103072.19;4993227;28;20026;-73
2023/01/24 03:43:30;;;;;;;10.43;6.80;;;;;;;-4.45;100.00;103065.25;4993337;28;20522;-72
2023/01/24 03:45:55;;;;;;;7.10;5.87;;;;;;;-4.38;100.00;103056.53;4975291;28;20022;-72
2023/01/24 03:48:26;;;;;;;7.57;6.10;;;;;;;-4.33;100.00;103048.72;4975406;28;20113;-74
2023/01/24 03:53:36;;;;;;;6.40;5.70;;;;;;;-4.26;100.00;103053.00;4992926;28;20448;-71
2023/01/24 03:56:03;;;;;;;6.87;5.43;;;;;;;-4.25;100.00;103052.13;4993193;28;20142;-72
2023/01/24 03:58:32;;;;;;;7.07;5.43;;;;;;;-4.19;100.00;103052.06;4992812;28;20086;-74
2023/01/24 04:00:58;;;;;;;6.90;5.53;;;;;;;-4.23;100.00;103052.97;4993113;28;20137;-74
2023/01/24 04:03:24;;;;;;;6.63;5.57;;;;;;;-4.19;100.00;103043.38;4992695;28;20180;-73
2023/01/24 04:05:50;;;;;;;6.00;5.30;;;;;;;-4.13;100.00;103054.59;4994972;28;20026;-71
2023/01/24 04:08:17;;;;;;;5.68;4.90;;;;;;;-4.12;100.00;103039.84;4978489;28;20493;-72
2023/01/24 04:10:43;;;;;;;6.82;5.40;;;;;;;-4.27;100.00;102993.16;4994450;28;20050;-72
2023/01/24 04:13:09;;;;;;;7.03;5.80;;;;;;;-4.08;100.00;103011.19;4997216;28;20500;-73
2023/01/24 04:15:35;;;;;;;6.47;5.35;;;;;;;-4.03;100.00;103018.97;4997304;28;20034;-73
2023/01/24 04:18:02;;;;;;;6.27;5.10;;;;;;;-4.11;100.00;103002.53;5012433;28;20528;-73
2023/01/24 04:20:31;;;;;;;8.52;5.10;;;;;;;-4.07;100.00;103012.91;4997019;28;20030;-74
2023/01/24 04:23:00;;;;;;;5.05;4.53;;;;;;;-4.07;100.00;103018.09;4996696;28;20185;-72
2023/01/24 04:25:25;;;;;;;;;;;;;;;-4.03;100.00;103011.16;4998700;28;20093;-72
2023/01/24 04:27:51;;;;;;;6.37;5.00;;;;;;;-4.01;100.00;103016.34;4986365;28;19910;-71
2023/01/24 04:30:17;;;;;;;5.80;5.18;;;;;;;-4.01;100.00;103006.81;5020283;28;20031;-71
2023/01/24 04:32:43;;;;;;;5.97;5.30;;;;;;;-4.01;100.00;103008.53;5004720;28;20054;-72
2023/01/24 04:35:15;;;;;;;9.02;7.57;;;;;;;-3.97;100.00;103007.63;4990032;28;20026;-73
2023/01/24 04:37:41;;;;;;;8.98;6.15;;;;;;;-3.94;100.00;103002.41;5001947;28;20030;-73
2023/01/24 04:40:08;;;;;;;6.60;5.50;;;;;;;-3.92;100.00;102996.28;4979527;28;20473;-72
2023/01/24 04:42:33;;;;;;;6.13;5.20;;;;;;;-3.91;100.00;103002.38;4996201;28;20077;-72
2023/01/24 04:44:59;;;;;;;7.57;6.77;;;;;;;-3.86;100.00;102995.34;4996238;28;20050;-73
2023/01/24 04:47:24;;;;;;;6.83;6.07;;;;;;;-3.88;100.00;102981.50;4979021;28;20030;-73
2023/01/24 04:49:49;;;;;;;7.37;6.63;;;;;;;-3.86;100.00;102974.53;4996090;28;20026;-74
2023/01/24 04:52:15;;;;;;;8.17;6.37;;;;;;;-3.86;100.00;102974.53;4996166;28;20108;-73
2023/01/24 04:54:41;;;;;;;8.80;6.90;;;;;;;-3.85;100.00;102973.66;4995733;28;20040;-72
2023/01/24 04:57:07;;;;;;;9.23;6.50;;;;;;;-3.84;100.00;102977.97;4997584;28;20473;-71
2023/01/24 04:59:33;;;;;;;7.07;5.78;;;;;;;-3.86;100.00;102948.50;4995883;28;20565;-73
2023/01/24 05:01:59;;;;;;;9.15;7.45;;;;;;;-3.77;100.00;102958.81;4995665;28;20078;-70
2023/01/24 05:04:25;;;;;;;8.23;5.80;;;;;;;-3.81;100.00;102936.28;4995661;28;20144;-72
2023/01/24 05:06:50;;;;;;;8.53;7.03;;;;;;;-3.84;100.00;102925.91;4995627;28;20397;-73
2023/01/24 05:09:16;;;;;;;6.53;5.67;;;;;;;-3.69;100.00;102950.94;4995674;28;20036;-74
2023/01/24 05:11:41;;;;;;;7.30;5.33;;;;;;;-3.67;100.00;102950.03;4996188;28;20461;-73
2023/01/24 05:14:10;;;;;;;8.90;6.50;;;;;;;-3.73;100.00;102936.22;4996109;28;20019;-71
2023/01/24 05:16:36;;;;;;;6.95;5.70;;;;;;;-3.63;100.00;102946.50;4995996;28;20034;-73
2023/01/24 05:19:01;;;;;;;6.60;5.87;;;;;;;-3.66;100.00;102951.75;4995270;28;20038;-72
2023/01/24 05:21:27;;;;;;;8.67;6.60;;;;;;;-3.64;100.00;102934.34;4995715;28;20433;-73
2023/01/24 05:23:53;;;;;;;5.90;5.20;;;;;;;-3.72;100.00;102919.72;4995341;28;20033;-72
2023/01/24 05:26:21;;;;;;;7.05;5.63;;;;;;;-3.67;100.00;102933.53;4979300;28;20061;-72
2023/01/24 05:28:48;;;;;;;7.25;5.95;;;;;;;-3.59;100.00;102942.13;4995960;28;20034;-72
2023/01/24 05:31:13;;;;;;;6.65;5.90;;;;;;;-3.59;100.00;102937.75;4995480;28;20073;-71
2023/01/24 05:33:39;;;;;;;5.83;5.13;;;;;;;-3.54;100.00;102935.97;4995253;28;20034;-71
2023/01/24 05:36:08;;;;;;;6.47;5.73;;;;;;;-3.55;100.00;102938.59;4994982;28;20030;-72
2023/01/24 05:38:33;;;;;;;6.18;4.95;;;;;;;-3.54;100.00;102925.53;4977489;28;20386;-73
2023/01/24 05:41:07;;;;;;;7.03;5.23;;;;;;;-3.54;100.00;102914.25;4994489;28;20026;-71
2023/01/24 05:43:34;;;;;;;7.47;5.30;;;;;;;-3.50;100.00;102922.00;4995322;28;20053;-72
2023/01/24 05:46:01;;;;;;;6.25;5.65;;;;;;;-3.44;100.00;102921.94;4995250;28;20034;-72
2023/01/24 05:48:27;;;;;;;6.05;5.03;;;;;;;-3.47;100.00;102911.56;4994742;28;20066;-72
2023/01/24 05:51:01;;;;;;;6.47;4.50;;;;;;;-3.43;100.00;102909.78;4998851;28;20073;-73
2023/01/24 05:53:27;;;;;;;5.78;5.18;;;;;;;-3.45;100.00;102912.41;5000431;28;20035;-72
2023/01/24 05:55:57;;;;;;;5.45;4.43;;;;;;;-3.52;100.00;102902.06;5000008;28;20038;-72
2023/01/24 05:58:25;;;;;;;5.40;4.10;;;;;;;-3.42;100.00;102913.25;4997549;28;20100;-72
2023/01/24 06:00:51;;;;;;;7.07;4.95;;;;;;;-3.39;100.00;102897.59;4995377;28;20038;-72
2023/01/24 06:03:16;;;;;;;5.70;5.10;;;;;;;-3.40;100.00;102919.31;4995222;28;20136;-72
2023/01/24 06:05:46;;;;;;;5.43;4.50;;;;;;;-3.40;100.00;102904.53;4994449;28;20030;-73
2023/01/24 06:08:12;;;;;;;6.15;5.03;;;;;;;-3.33;100.00;102897.50;4994982;28;20192;-73
2023/01/24 06:10:37;;;;;;;4.87;4.43;;;;;;;-3.31;100.00;102907.00;4997304;28;20061;-72
2023/01/24 06:13:05;;;;;;;7.18;5.55;;;;;;;-3.32;100.00;102888.78;4994372;28;20042;-71
2023/01/24 06:15:31;;;;;;;8.13;5.10;;;;;;;-3.24;100.00;102893.00;4977396;28;20457;-74
2023/01/24 06:17:56;;;;;;;5.70;4.57;;;;;;;-3.25;100.00;102874.78;4977097;28;20034;-72
2023/01/24 06:20:22;;;;;;;5.37;4.47;;;;;;;-3.22;100.00;102898.19;4993889;28;20034;-72
2023/01/24 06:22:53;;;;;;;5.93;4.67;;;;;;;-3.21;100.00;102897.28;4994194;28;20034;-72
2023/01/24 06:25:21;;;;;;;5.68;4.85;;;;;;;-3.26;100.00;102897.38;4994420;28;20026;-72
2023/01/24 06:27:48;;;;;;;5.47;4.40;;;;;;;-3.20;100.00;102899.03;4993844;28;20046;-73
2023/01/24 06:30:15;;;;;;;5.85;4.82;;;;;;;-3.17;100.00;102891.19;4976744;28;20354;-72
2023/01/24 06:33:12;;;;;;;5.28;4.78;;;;;;;-3.12;100.00;102892.84;4993949;28;20038;-73
2023/01/24 06:36:11;;;;;;;4.95;4.43;;;;;;;-3.10;100.00;102886.72;4993370;28;20088;-73
2023/01/24 06:38:37;;;;;;;7.38;5.60;;;;;;;-3.04;100.00;102890.09;4994171;28;20022;-72
2023/01/24 06:41:03;;;;;;;5.97;5.20;;;;;;;-3.06;100.00;102886.66;4993939;28;20428;-71
2023/01/24 06:43:29;;;;;;;5.83;5.20;;;;;;;-3.03;100.00;102884.00;4993801;28;20041;-73
2023/01/24 06:45:55;;;;;;;4.97;4.45;;;;;;;-3.03;100.00;102881.41;4993936;28;20085;-74
2023/01/24 06:48:20;;;;;;;11.68;5.22;;;;;;;-3.08;100.00;102878.00;4994176;28;20030;-71
2023/01/24 06:50:47;;;;;;;4.87;4.37;;;;;;;-3.04;100.00;102884.03;4994200;28;20038;-73
2023/01/24 06:53:14;;;;;;;7.47;4.40;;;;;;;-3.05;100.00;102867.53;4993681;28;20466;-72
2023/01/24 06:55:43;;;;;;;5.13;4.63;;;;;;;-2.96;100.00;102877.78;4993488;28;20026;-72
2023/01/24 06:58:09;;;;;;;5.13;4.63;;;;;;;-3.02;100.00;102872.69;4975620;28;20076;-72
2023/01/24 07:00:36;;;;;;;9.43;5.10;;;;;;;-3.00;100.00;102867.44;4997402;28;20522;-71
2023/01/24 07:03:07;;;;;;;8.07;4.63;;;;;;;-2.96;100.00;102872.59;5000506;28;20065;-71
2023/01/24 07:05:34;;;;;;;5.22;4.72;;;;;;;-2.98;100.00;102871.75;4998543;28;20034;-71
2023/01/24 07:08:00;;;;;;;5.85;5.22;;;;;;;-2.92;100.00;102866.44;4994771;28;20034;-72
2023/01/24 07:10:26;;;;;;;5.57;5.00;;;;;;;-2.97;100.00;102862.19;4993416;28;20030;-72
2023/01/24 07:12:51;;;;;;;10.20;6.03;;;;;;;-2.90;100.00;102872.47;4993626;28;20073;-72
2023/01/24 07:15:17;;;;;;;8.63;6.30;;;;;;;-2.90;100.00;102864.66;4993452;28;20121;-72
2023/01/24 07:17:44;;;;;;;6.83;5.57;;;;;;;-2.91;100.00;102870.75;4993462;28;20031;-73
2023/01/24 07:20:12;;;;;;;7.45;5.80;;;;;;;-2.95;100.00;102853.44;4994436;28;20462;-73
2023/01/24 07:22:38;;;;;;;9.43;5.30;;;;;;;-2.94;100.00;102863.00;4993202;28;20044;-74
2023/01/24 07:25:15;;;;;;;7.60;5.43;;;;;;;-2.91;100.00;102856.84;5001370;28;20060;-70
2023/01/24 07:27:42;;;;;;;7.43;5.80;;;;;;;-2.87;100.00;102861.16;4999558;28;20064;-72
2023/01/24 07:30:10;;;;;;;8.20;5.65;;;;;;;-2.92;100.00;102862.97;4998930;28;20022;-73
2023/01/24 07:32:35;;;;;;;7.13;6.40;;;;;;;-2.99;100.00;102849.16;4962867;28;20153;-72
2023/01/24 07:35:01;;;;;;;8.07;5.97;;;;;;;-2.95;100.00;102836.94;4993328;28;20557;-74
2023/01/24 07:37:27;;;;;;;7.03;6.10;;;;;;;-2.82;100.00;102854.13;4976262;28;20037;-73
2023/01/24 07:39:52;;;;;;;6.57;5.83;;;;;;;-2.87;100.00;102841.16;4993126;28;20037;-75
2023/01/24 07:42:18;;;;;;;7.30;5.40;;;;;;;-2.96;100.00;102825.66;4975862;28;20042;-72
2023/01/24 07:44:43;;;;;;;9.03;6.53;;;;;;;-2.85;100.00;102830.72;4975629;28;20489;-72
2023/01/24 07:47:12;;;;;;;7.93;6.03;;;;;;;-2.77;100.00;102846.22;4992812;28;20030;-73
2023/01/24 07:49:37;;;;;;;7.90;6.00;;;;;;;-2.76;100.00;102824.47;4975685;28;20116;-71
2023/01/24 07:52:03;;;;;;;8.60;6.40;;;;;;;-2.77;100.00;102820.13;4992659;28;20141;-74
2023/01/24 07:54:28;;;;;;;8.47;5.53;;;;;;;-2.73;100.00;102832.22;4992927;28;20030;-74
2023/01/24 07:56:54;;;;;;;10.37;5.57;;;;;;;-2.68;100.00;102830.41;4993180;28;20069;-72
2023/01/24 07:59:19;;;;;;;8.13;5.47;;;;;;;-2.74;100.00;102820.06;4993100;28;20141;-74
2023/01/24 08:01:45;;;;;;;8.87;5.60;;;;;;;-2.67;100.00;102832.97;4975435;28;20038;-73
2023/01/24 08:04:12;;;;;;;8.60;5.47;;;;;;;-2.68;100.00;102833.88;4992132;28;20041;-72
2023/01/24 08:07:16;;;;;;;7.70;5.30;;;;;;;-2.66;100.00;102841.66;4992240;28;20030;-72
2023/01/24 08:09:24;;;;;;;7.68;4.93;;;;;;;-2.61;100.00;102837.22;4992187;28;20381;-72
2023/01/24 08:11:50;;;;;;;5.90;5.30;;;;;;;-2.61;100.00;102839.81;4992432;28;20034;-71
2023/01/24 08:14:15;;;;;;;5.00;4.50;;;;;;;-2.64;100.00;102837.28;4992351;28;20062;-71
2023/01/24 08:16:41;;;;;;;4.82;4.32;;;;;;;-2.62;100.00;102819.84;4993771;28;20069;-72
2023/01/24 08:19:07;;;;;;;6.13;4.50;;;;;;;-2.59;100.00;102812.00;4979558;28;20474;-72
2023/01/24 08:21:32;;;;;;;7.40;4.73;;;;;;;-2.52;100.00;102813.59;4993576;28;20030;-73
2023/01/24 08:23:58;;;;;;;4.93;4.10;;;;;;;-2.62;100.00;102798.97;4997258;28;20036;-72
2023/01/24 08:26:23;;;;;;;4.30;3.90;;;;;;;-2.51;100.00;102815.31;4997402;28;20052;-71
2023/01/24 08:28:49;;;;;;;5.27;4.00;;;;;;;-2.46;100.00;102829.13;4992799;28;20026;-72
2023/01/24 08:31:14;;;;;;;4.37;3.97;;;;;;;-2.50;100.00;102819.63;4992510;28;20058;-72
2023/01/24 08:33:40;;;;;;;4.87;4.07;;;;;;;-2.46;100.00;102821.28;4992679;28;20437;-71
2023/01/24 08:36:06;;;;;;;5.60;3.43;;;;;;;-2.46;100.00;102821.28;4992139;28;20060;-70
2023/01/24 08:38:32;;;;;;;3.70;3.40;;;;;;;-2.42;100.00;102822.94;4992570;28;20037;-78
2023/01/24 08:40:57;;;;;;;5.20;3.70;;;;;;;-2.45;100.00;102806.50;4993231;28;20466;-79
2023/01/24 08:43:23;;;;;;;5.53;3.73;;;;;;;-2.40;100.00;102818.56;4993703;28;20038;-78
2023/01/24 08:45:55;;;;;;;4.20;3.30;;;;;;;-2.38;100.00;102827.22;4975550;28;20034;-78
2023/01/24 08:48:20;;;;;;;4.18;3.50;;;;;;;-2.39;100.00;102804.63;4992438;28;20049;-80
2023/01/24 08:50:46;;;;;;;3.50;3.20;;;;;;;-2.31;100.00;102810.56;4992733;28;20030;-78
2023/01/24 08:53:11;;;;;;;3.67;3.30;;;;;;;-2.50;100.00;102778.75;4992629;28;20740;-76
2023/01/24 08:55:37;;;;;;;7.20;5.60;;;;;;;-2.30;100.00;102799.25;4992696;28;20191;-75
2023/01/24 08:58:04;;;;;;;4.23;3.60;;;;;;;-2.36;100.00;102785.44;4994209;28;20104;-75
2023/01/24 09:00:33;;;;;;;7.68;3.58;;;;;;;-2.23;100.00;102798.22;4996570;28;20042;-80
2023/01/24 09:03:00;;;;;;;5.47;3.40;;;;;;;-2.14;100.00;102793.69;4977911;28;20098;-81
2023/01/24 09:05:29;;;;;;;4.88;3.72;;;;;;;-2.12;100.00;102800.59;4980169;28;20077;-77
2023/01/24 09:07:55;;;;;;;7.68;3.35;;;;;;;-2.09;100.00;102794.47;4997845;28;20045;-84
2023/01/24 09:10:21;;;;;;;4.10;3.60;;;;;;;-1.95;100.00;102792.44;4998412;28;20038;-81
2023/01/24 09:12:46;;;;;;;6.03;3.40;;;;;;;-1.92;100.00;102776.69;4980035;28;20625;-78
2023/01/24 09:15:12;;;;;;;5.17;3.50;;;;;;;-1.85;100.00;102778.28;4995921;28;20125;-75
2023/01/24 09:17:39;;;;;;;5.70;3.23;;;;;;;-1.90;100.00;102780.13;4995799;28;20122;-74
2023/01/24 09:20:06;;;;;;;3.63;2.85;;;;;;;-1.98;100.00;102772.47;4995673;28;20085;-77
2023/01/24 09:22:32;;;;;;;3.65;3.28;;;;;;;-1.93;100.00;102780.19;4978144;28;20070;-78
2023/01/24 09:24:57;;;;;;;3.67;3.07;;;;;;;-1.85;100.00;102783.50;4995763;28;20118;-75
2023/01/24 09:27:23;;;;;;;3.47;3.03;;;;;;;-1.87;100.00;102787.91;4998881;28;20420;-79
2023/01/24 09:29:48;;;;;;;5.00;3.47;;;;;;;-1.90;100.00;102780.13;4978437;28;20034;-77
2023/01/24 09:32:14;;;;;;;3.40;3.10;;;;;;;-1.95;100.00;102769.78;4995140;28;20035;-75
2023/01/24 09:34:46;;;;;;;4.90;3.43;;;;;;;-1.88;100.00;102780.94;4996120;28;20034;-83
2023/01/24 09:37:19;;;;;;;3.63;3.22;;;;;;;-1.88;100.00;102767.91;4995753;28;20054;-75
2023/01/24 09:39:45;;;;;;;4.30;3.08;;;;;;;-1.84;100.00;102772.16;4995514;28;20141;-78
2023/01/24 09:42:16;;;;;;;2.88;2.67;;;;;;;-1.81;100.00;102773.84;4977540;28;20034;-76
2023/01/24 09:45:06;;;;;;;4.15;2.78;;;;;;;-1.81;100.00;102772.09;4995022;28;20120;-76
2023/01/24 09:47:40;;;;;;;4.13;3.20;;;;;;;-1.85;100.00;102757.38;4977506;28;20508;-75
2023/01/24 09:50:15;;;;;;;4.88;3.30;;;;;;;-1.87;100.00;102760.03;4994435;28;20337;-79
2023/01/24 09:52:44;;;;;;;6.03;3.72;;;;;;;-1.89;100.00;102745.28;4987807;28;20022;-77
2023/01/24 09:55:37;;;;;;;3.60;3.22;;;;;;;-1.84;100.00;102750.41;4994474;28;20029;-77
2023/01/24 09:58:31;;;;;;;4.55;3.22;;;;;;;-1.87;100.00;102741.75;4994486;28;20029;-76
2023/01/24 10:01:08;;;;;;;3.88;3.40;;;;;;;-2.02;100.00;102713.38;4995109;28;20189;-79
2023/01/24 10:03:35;;;;;;;3.75;2.70;;;;;;;-1.91;100.00;102747.94;4995530;28;20058;-79
2023/01/24 10:06:14;;;;;;;4.72;2.78;;;;;;;-1.91;100.00;102747.94;4995727;28;20053;-81
2023/01/24 10:09:27;;;;;;;4.75;3.28;;;;;;;-1.85;100.00;102754.75;4995174;28;20033;-79
2023/01/24 10:23:26;;;;;;;4.20;3.03;;;;;;;-1.90;100.00;102713.09;4979609;28;20065;-79
2023/01/24 10:26:20;;;;;;;3.42;2.72;;;;;;;-1.81;100.00;102724.22;4994723;28;20422;-81
2023/01/24 10:28:54;;;;;;;3.13;2.83;;;;;;;-1.75;100.00;102737.97;4994092;28;20030;-76
2023/01/24 10:31:25;;;;;;;3.10;2.80;;;;;;;-1.69;100.00;102748.31;4991988;28;20037;-77
2023/01/24 10:34:18;;;;;;;3.55;2.60;;;;;;;-1.71;100.00;102734.44;4996068;28;20102;-75
2023/01/24 10:36:52;;;;;;;4.32;3.90;;;;;;;-1.59;100.00;102748.94;4992972;28;20030;-75
2023/01/24 10:39:18;;;;;;;5.60;3.00;;;;;;;-1.53;100.00;102742.72;4995170;28;20038;-76
2023/01/24 10:41:43;;;;;;;6.30;2.87;;;;;;;-1.46;100.00;102733.81;4993729;28;20033;-76
2023/01/24 10:44:16;;;;;;;4.03;3.00;;;;;;;-1.46;100.00;102731.22;4995683;28;20022;-79
2023/01/24 10:46:47;;;;;;;6.03;3.33;;;;;;;-1.46;100.00;102725.97;4994727;28;20026;-77
2023/01/24 10:49:22;;;;;;;6.53;2.78;;;;;;;-1.50;100.00;102716.50;4994403;28;20121;-76
2023/01/24 10:52:17;;;;;;;4.18;2.70;;;;;;;-1.40;100.00;102721.47;4994408;28;20022;-78
2023/01/24 10:54:43;;;;;;;7.95;3.33;;;;;;;-1.33;100.00;102740.47;4993709;28;20428;-77
2023/01/24 10:57:26;;;;;;;3.00;2.80;;;;;;;-1.39;100.00;102733.66;4975607;28;20022;-78
2023/01/24 10:59:54;;;;;;;3.90;2.80;;;;;;;-1.51;100.00;102723.47;4995709;28;20055;-77
2023/01/24 11:02:23;;;;;;;5.80;3.13;;;;;;;-1.41;100.00;102726.75;4999093;28;20297;-75
2023/01/24 11:05:15;;;;;;;3.30;3.00;;;;;;;-1.36;100.00;102737.94;4994184;28;20037;-77
2023/01/24 11:07:46;;;;;;;2.83;2.63;;;;;;;-1.41;100.00;102729.38;4972350;28;20504;-74
2023/01/24 11:10:21;;;;;;;4.15;3.08;;;;;;;-1.31;100.00;102738.69;4975557;28;20290;-73
2023/01/24 11:12:59;;;;;;;4.97;2.80;;;;;;;-1.29;100.00;102726.44;4993492;28;20033;-75
2023/01/24 11:15:35;;;;;;;3.53;2.90;;;;;;;-1.30;100.00;102719.50;4994339;28;20273;-77
2023/01/24 11:18:20;;;;;;;4.43;2.87;;;;;;;-1.30;100.00;102714.25;4995055;28;20034;-78
2023/01/24 11:21:08;;;;;;;2.93;2.73;;;;;;;-1.47;100.00;102688.53;4993029;28;20626;-74
2023/01/24 11:23:33;;;;;;;3.17;2.85;;;;;;;-1.19;100.00;102707.00;4995849;28;20336;-78
2023/01/24 11:26:02;;;;;;;4.93;2.70;;;;;;;-1.17;100.00;102704.34;4998353;28;20034;-77
2023/01/24 11:29:02;;;;;;;;;;;;;;;-1.13;100.00;102712.09;5006458;28;20053;-77
2023/01/24 11:31:55;;;;;;;4.63;2.90;;;;;;;-1.22;100.00;102696.63;4990793;28;19920;-78
2023/01/24 11:34:36;;;;;;;2.95;2.75;;;;;;;-1.19;100.00;102696.53;4974341;28;20378;-76
2023/01/24 11:37:23;;;;;;;5.25;2.60;;;;;;;-1.19;100.00;102698.28;5004587;28;20034;-75
2023/01/24 11:40:07;;;;;;;3.90;3.27;;;;;;;-1.14;100.00;102705.13;5003012;28;20094;-76
2023/01/24 11:42:53;;;;;;;3.10;2.80;;;;;;;-1.09;100.00;102707.63;5000828;28;20415;-78
2023/01/24 11:45:44;;;;;;;3.53;3.10;;;;;;;-1.10;100.00;102716.38;4993891;28;20348;-75
2023/01/24 11:48:30;;;;;;;4.53;3.53;;;;;;;-1.10;100.00;102714.63;4975768;28;20270;-79
2023/01/24 11:51:53;;;;;;;3.30;2.80;;;;;;;-1.07;100.00;102727.59;4993092;28;20266;-78
2023/01/24 12:02:23;;;;;;;4.30;2.90;;;;;;;-0.81;100.00;102718.22;4997277;28;20273;-79
2023/01/24 12:05:20;;;;;;;4.03;2.70;;;;;;;-0.80;100.00;102712.94;4975375;28;20065;-80
2023/01/24 12:08:52;;;;;;;;;;;;;;;;;;;;;
2023/01/24 12:12:23;;;;;;;3.00;2.60;;;;;;;-0.84;100.00;102708.69;4970241;28;20143;-76
2023/01/24 12:14:48;;;;;;;4.40;3.03;;;;;;;-0.85;100.00;102695.66;4971129;28;20317;-74
2023/01/24 12:17:22;;;;;;;4.13;3.17;;;;;;;-0.84;100.00;102686.91;4972798;28;20821;-72
2023/01/24 12:19:57;;;;;;;3.40;2.80;;;;;;;-0.78;100.00;102691.97;4992710;28;20493;-71
2023/01/24 12:22:27;;;;;;;7.53;5.67;;;;;;;-0.75;100.00;102700.56;4992852;28;20305;-72
2023/01/24 12:25:02;;;;;;;4.55;3.83;;;;;;;-0.73;100.00;102705.75;4974813;28;20405;-72